sensor_id;sensor_type;location;lat;lon;timestamp;P1;durP1;ratioP1;P2;durP2;ratioP2
41343;SDS011;27089;50.022;7.604;2023-05-19T00:02:23;5.10;;;2.53;;
41343;SDS011;27089;50.022;7.604;2023-05-19T00:04:51;3.73;;;2.13;;
41343;SDS011;27089;50.022;7.604;2023-05-19T00:07:19;3.97;;;2.37;;
41343;SDS011;27089;50.022;7.604;2023-05-19T00:09:50;3.97;;;2.27;;
41343;SDS011;27089;50.022;7.604;2023-05-19T00:12:19;6.20;;;2.53;;
41343;SDS011;27089;50.022;7.604;2023-05-19T00:14:46;5.10;;;2.37;;
41343;SDS011;27089;50.022;7.604;2023-05-19T00:17:14;5.43;;;2.60;;
41343;SDS011;27089;50.022;7.604;2023-05-19T00:19:41;5.37;;;2.40;;
41343;SDS011;27089;50.022;7.604;2023-05-19T00:22:09;6.47;;;2.40;;
41343;SDS011;27089;50.022;7.604;2023-05-19T00:24:36;5.70;;;2.70;;
41343;SDS011;27089;50.022;7.604;2023-05-19T00:27:03;4.90;;;2.50;;
41343;SDS011;27089;50.022;7.604;2023-05-19T00:29:31;5.67;;;2.80;;
41343;SDS011;27089;50.022;7.604;2023-05-19T00:31:58;4.03;;;2.33;;
41343;SDS011;27089;50.022;7.604;2023-05-19T00:34:25;3.63;;;2.47;;
41343;SDS011;27089;50.022;7.604;2023-05-19T00:36:52;3.50;;;2.50;;
41343;SDS011;27089;50.022;7.604;2023-05-19T00:39:19;4.30;;;2.40;;
41343;SDS011;27089;50.022;7.604;2023-05-19T00:41:46;4.13;;;2.90;;
41343;SDS011;27089;50.022;7.604;2023-05-19T00:44:13;4.97;;;2.83;;
41343;SDS011;27089;50.022;7.604;2023-05-19T00:46:41;4.57;;;3.03;;
41343;SDS011;27089;50.022;7.604;2023-05-19T00:49:08;4.90;;;2.37;;
41343;SDS011;27089;50.022;7.604;2023-05-19T00:51:35;4.77;;;2.37;;
41343;SDS011;27089;50.022;7.604;2023-05-19T00:54:02;3.60;;;2.40;;
41343;SDS011;27089;50.022;7.604;2023-05-19T00:56:30;5.60;;;2.50;;
41343;SDS011;27089;50.022;7.604;2023-05-19T00:58:57;6.83;;;2.60;;
41343;SDS011;27089;50.022;7.604;2023-05-19T01:01:25;5.23;;;2.57;;
41343;SDS011;27089;50.022;7.604;2023-05-19T01:03:54;3.33;;;2.13;;
41343;SDS011;27089;50.022;7.604;2023-05-19T01:06:23;6.87;;;2.23;;
41343;SDS011;27089;50.022;7.604;2023-05-19T01:08:52;5.03;;;1.97;;
41343;SDS011;27089;50.022;7.604;2023-05-19T01:11:19;4.00;;;2.53;;
41343;SDS011;27089;50.022;7.604;2023-05-19T01:13:46;5.10;;;2.17;;
41343;SDS011;27089;50.022;7.604;2023-05-19T01:16:17;3.83;;;2.27;;
41343;SDS011;27089;50.022;7.604;2023-05-19T01:18:49;3.10;;;2.27;;
41343;SDS011;27089;50.022;7.604;2023-05-19T01:24:23;3.17;;;2.23;;
41343;SDS011;27089;50.022;7.604;2023-05-19T01:27:25;5.13;;;2.30;;
41343;SDS011;27089;50.022;7.604;2023-05-19T01:30:17;7.23;;;2.60;;
41343;SDS011;27089;50.022;7.604;2023-05-19T01:32:52;6.93;;;2.80;;
41343;SDS011;27089;50.022;7.604;2023-05-19T01:35:22;5.97;;;2.70;;
41343;SDS011;27089;50.022;7.604;2023-05-19T01:37:51;5.97;;;2.80;;
41343;SDS011;27089;50.022;7.604;2023-05-19T01:40:20;5.80;;;2.80;;
41343;SDS011;27089;50.022;7.604;2023-05-19T01:42:47;5.80;;;2.60;;
41343;SDS011;27089;50.022;7.604;2023-05-19T01:45:19;8.13;;;2.50;;
41343;SDS011;27089;50.022;7.604;2023-05-19T01:47:47;5.77;;;2.77;;
41343;SDS011;27089;50.022;7.604;2023-05-19T01:50:18;6.20;;;2.60;;
41343;SDS011;27089;50.022;7.604;2023-05-19T01:52:46;5.60;;;2.60;;
41343;SDS011;27089;50.022;7.604;2023-05-19T01:55:13;4.87;;;2.43;;
41343;SDS011;27089;50.022;7.604;2023-05-19T01:57:42;3.27;;;2.13;;
41343;SDS011;27089;50.022;7.604;2023-05-19T02:00:20;5.67;;;2.60;;
41343;SDS011;27089;50.022;7.604;2023-05-19T02:02:59;5.17;;;2.50;;
41343;SDS011;27089;50.022;7.604;2023-05-19T02:05:39;6.73;;;2.90;;
41343;SDS011;27089;50.022;7.604;2023-05-19T02:08:12;7.17;;;2.60;;
41343;SDS011;27089;50.022;7.604;2023-05-19T02:10:44;8.00;;;3.03;;
41343;SDS011;27089;50.022;7.604;2023-05-19T02:13:15;8.17;;;2.77;;
41343;SDS011;27089;50.022;7.604;2023-05-19T02:15:46;6.57;;;2.33;;
41343;SDS011;27089;50.022;7.604;2023-05-19T02:18:14;7.70;;;2.70;;
41343;SDS011;27089;50.022;7.604;2023-05-19T02:20:44;4.87;;;2.50;;
41343;SDS011;27089;50.022;7.604;2023-05-19T02:23:11;5.47;;;2.43;;
41343;SDS011;27089;50.022;7.604;2023-05-19T02:25:38;6.90;;;3.33;;
41343;SDS011;27089;50.022;7.604;2023-05-19T02:28:05;3.27;;;2.50;;
41343;SDS011;27089;50.022;7.604;2023-05-19T02:30:32;4.73;;;2.30;;
41343;SDS011;27089;50.022;7.604;2023-05-19T02:33:00;6.43;;;2.70;;
41343;SDS011;27089;50.022;7.604;2023-05-19T02:35:30;7.37;;;2.60;;
41343;SDS011;27089;50.022;7.604;2023-05-19T02:37:57;7.27;;;2.40;;
41343;SDS011;27089;50.022;7.604;2023-05-19T02:40:24;6.43;;;2.67;;
41343;SDS011;27089;50.022;7.604;2023-05-19T02:42:51;6.50;;;2.90;;
41343;SDS011;27089;50.022;7.604;2023-05-19T02:45:18;6.70;;;2.87;;
41343;SDS011;27089;50.022;7.604;2023-05-19T02:47:45;7.50;;;3.00;;
41343;SDS011;27089;50.022;7.604;2023-05-19T02:50:14;6.13;;;2.43;;
41343;SDS011;27089;50.022;7.604;2023-05-19T02:52:41;5.00;;;2.37;;
41343;SDS011;27089;50.022;7.604;2023-05-19T02:55:08;8.10;;;2.60;;
41343;SDS011;27089;50.022;7.604;2023-05-19T02:57:40;3.77;;;2.50;;
41343;SDS011;27089;50.022;7.604;2023-05-19T03:00:08;3.63;;;2.80;;
41343;SDS011;27089;50.022;7.604;2023-05-19T03:02:35;6.00;;;2.40;;
41343;SDS011;27089;50.022;7.604;2023-05-19T03:05:03;3.13;;;2.00;;
41343;SDS011;27089;50.022;7.604;2023-05-19T03:07:33;4.33;;;2.30;;
41343;SDS011;27089;50.022;7.604;2023-05-19T03:10:00;3.50;;;2.03;;
41343;SDS011;27089;50.022;7.604;2023-05-19T03:12:29;4.67;;;2.30;;
41343;SDS011;27089;50.022;7.604;2023-05-19T03:14:57;4.53;;;2.50;;
41343;SDS011;27089;50.022;7.604;2023-05-19T03:17:24;5.17;;;2.43;;
41343;SDS011;27089;50.022;7.604;2023-05-19T03:19:52;6.30;;;2.20;;
41343;SDS011;27089;50.022;7.604;2023-05-19T03:22:19;4.33;;;2.40;;
41343;SDS011;27089;50.022;7.604;2023-05-19T03:24:48;7.60;;;2.40;;
41343;SDS011;27089;50.022;7.604;2023-05-19T03:27:15;8.47;;;2.30;;
41343;SDS011;27089;50.022;7.604;2023-05-19T03:29:42;4.47;;;2.30;;
41343;SDS011;27089;50.022;7.604;2023-05-19T03:32:09;7.73;;;2.60;;
41343;SDS011;27089;50.022;7.604;2023-05-19T03:34:36;6.47;;;2.53;;
41343;SDS011;27089;50.022;7.604;2023-05-19T03:37:03;3.77;;;2.40;;
41343;SDS011;27089;50.022;7.604;2023-05-19T03:39:30;4.80;;;2.90;;
41343;SDS011;27089;50.022;7.604;2023-05-19T03:41:58;5.97;;;2.53;;
41343;SDS011;27089;50.022;7.604;2023-05-19T03:44:25;3.63;;;2.33;;
41343;SDS011;27089;50.022;7.604;2023-05-19T03:46:52;4.10;;;2.63;;
41343;SDS011;27089;50.022;7.604;2023-05-19T03:49:19;5.40;;;2.30;;
41343;SDS011;27089;50.022;7.604;2023-05-19T03:51:46;4.80;;;2.50;;
41343;SDS011;27089;50.022;7.604;2023-05-19T03:54:13;6.17;;;2.23;;
41343;SDS011;27089;50.022;7.604;2023-05-19T03:56:40;3.83;;;2.33;;
41343;SDS011;27089;50.022;7.604;2023-05-19T03:59:09;4.93;;;2.70;;
41343;SDS011;27089;50.022;7.604;2023-05-19T04:01:36;8.47;;;2.43;;
41343;SDS011;27089;50.022;7.604;2023-05-19T04:04:03;5.37;;;2.27;;
41343;SDS011;27089;50.022;7.604;2023-05-19T04:06:30;5.43;;;2.23;;
41343;SDS011;27089;50.022;7.604;2023-05-19T04:08:57;5.00;;;2.30;;
41343;SDS011;27089;50.022;7.604;2023-05-19T04:11:24;3.67;;;2.20;;
41343;SDS011;27089;50.022;7.604;2023-05-19T04:13:51;4.07;;;2.17;;
41343;SDS011;27089;50.022;7.604;2023-05-19T04:16:20;4.40;;;2.10;;
41343;SDS011;27089;50.022;7.604;2023-05-19T04:18:47;4.60;;;2.13;;
41343;SDS011;27089;50.022;7.604;2023-05-19T04:21:13;7.30;;;2.20;;
41343;SDS011;27089;50.022;7.604;2023-05-19T04:23:40;3.63;;;2.03;;
41343;SDS011;27089;50.022;7.604;2023-05-19T04:26:07;4.33;;;2.00;;
41343;SDS011;27089;50.022;7.604;2023-05-19T04:28:34;4.70;;;2.10;;
41343;SDS011;27089;50.022;7.604;2023-05-19T04:31:04;4.07;;;1.70;;
41343;SDS011;27089;50.022;7.604;2023-05-19T04:33:36;3.60;;;1.70;;
41343;SDS011;27089;50.022;7.604;2023-05-19T04:36:03;5.43;;;1.80;;
41343;SDS011;27089;50.022;7.604;2023-05-19T04:38:32;4.60;;;1.57;;
41343;SDS011;27089;50.022;7.604;2023-05-19T04:41:00;4.63;;;1.60;;
41343;SDS011;27089;50.022;7.604;2023-05-19T04:43:28;4.00;;;1.67;;
41343;SDS011;27089;50.022;7.604;2023-05-19T04:45:55;3.77;;;1.70;;
41343;SDS011;27089;50.022;7.604;2023-05-19T04:48:23;3.90;;;1.70;;
41343;SDS011;27089;50.022;7.604;2023-05-19T04:50:51;4.53;;;1.70;;
41343;SDS011;27089;50.022;7.604;2023-05-19T04:53:18;3.07;;;1.70;;
41343;SDS011;27089;50.022;7.604;2023-05-19T04:55:46;5.30;;;1.80;;
41343;SDS011;27089;50.022;7.604;2023-05-19T04:58:12;4.37;;;1.40;;
41343;SDS011;27089;50.022;7.604;2023-05-19T05:00:41;4.83;;;1.60;;
41343;SDS011;27089;50.022;7.604;2023-05-19T05:03:08;4.90;;;1.80;;
41343;SDS011;27089;50.022;7.604;2023-05-19T05:05:36;3.77;;;1.90;;
41343;SDS011;27089;50.022;7.604;2023-05-19T05:08:04;5.03;;;1.80;;
41343;SDS011;27089;50.022;7.604;2023-05-19T05:10:31;4.00;;;1.87;;
41343;SDS011;27089;50.022;7.604;2023-05-19T05:12:58;5.60;;;1.73;;
41343;SDS011;27089;50.022;7.604;2023-05-19T05:15:26;5.53;;;1.97;;
41343;SDS011;27089;50.022;7.604;2023-05-19T05:17:54;5.53;;;1.70;;
41343;SDS011;27089;50.022;7.604;2023-05-19T05:20:21;5.00;;;1.73;;
41343;SDS011;27089;50.022;7.604;2023-05-19T05:22:49;5.20;;;1.67;;
41343;SDS011;27089;50.022;7.604;2023-05-19T05:25:18;7.93;;;2.17;;
41343;SDS011;27089;50.022;7.604;2023-05-19T05:27:46;4.53;;;1.90;;
41343;SDS011;27089;50.022;7.604;2023-05-19T05:30:13;4.23;;;1.33;;
41343;SDS011;27089;50.022;7.604;2023-05-19T05:32:40;4.23;;;1.63;;
41343;SDS011;27089;50.022;7.604;2023-05-19T05:35:07;3.87;;;1.50;;
41343;SDS011;27089;50.022;7.604;2023-05-19T05:37:34;8.00;;;1.73;;
41343;SDS011;27089;50.022;7.604;2023-05-19T05:40:01;8.90;;;2.20;;
41343;SDS011;27089;50.022;7.604;2023-05-19T05:42:32;3.83;;;1.87;;
41343;SDS011;27089;50.022;7.604;2023-05-19T05:44:59;3.27;;;1.63;;
41343;SDS011;27089;50.022;7.604;2023-05-19T05:47:26;5.53;;;1.70;;
41343;SDS011;27089;50.022;7.604;2023-05-19T05:49:54;8.17;;;1.70;;
41343;SDS011;27089;50.022;7.604;2023-05-19T05:52:21;8.13;;;1.50;;
41343;SDS011;27089;50.022;7.604;2023-05-19T05:54:53;3.73;;;1.43;;
41343;SDS011;27089;50.022;7.604;2023-05-19T05:57:20;5.50;;;1.97;;
41343;SDS011;27089;50.022;7.604;2023-05-19T05:59:49;6.13;;;1.50;;
41343;SDS011;27089;50.022;7.604;2023-05-19T06:02:16;3.43;;;1.30;;
41343;SDS011;27089;50.022;7.604;2023-05-19T06:04:43;5.13;;;1.87;;
41343;SDS011;27089;50.022;7.604;2023-05-19T06:07:10;3.53;;;1.70;;
41343;SDS011;27089;50.022;7.604;2023-05-19T06:09:36;7.57;;;1.80;;
41343;SDS011;27089;50.022;7.604;2023-05-19T06:12:04;3.30;;;1.70;;
41343;SDS011;27089;50.022;7.604;2023-05-19T06:14:31;3.70;;;1.53;;
41343;SDS011;27089;50.022;7.604;2023-05-19T06:16:59;5.63;;;1.67;;
41343;SDS011;27089;50.022;7.604;2023-05-19T06:19:26;3.97;;;1.87;;
41343;SDS011;27089;50.022;7.604;2023-05-19T06:21:53;3.57;;;1.80;;
41343;SDS011;27089;50.022;7.604;2023-05-19T06:24:20;7.40;;;1.73;;
41343;SDS011;27089;50.022;7.604;2023-05-19T06:26:47;3.57;;;1.63;;
41343;SDS011;27089;50.022;7.604;2023-05-19T06:29:14;3.77;;;1.63;;
41343;SDS011;27089;50.022;7.604;2023-05-19T06:31:41;3.30;;;1.70;;
41343;SDS011;27089;50.022;7.604;2023-05-19T06:34:09;4.33;;;1.90;;
41343;SDS011;27089;50.022;7.604;2023-05-19T06:36:38;4.23;;;1.50;;
41343;SDS011;27089;50.022;7.604;2023-05-19T06:39:05;4.18;;;1.75;;
41343;SDS011;27089;50.022;7.604;2023-05-19T06:41:32;4.90;;;1.55;;
41343;SDS011;27089;50.022;7.604;2023-05-19T06:43:59;4.13;;;1.70;;
41343;SDS011;27089;50.022;7.604;2023-05-19T06:46:26;6.65;;;1.77;;
41343;SDS011;27089;50.022;7.604;2023-05-19T06:48:53;5.10;;;1.80;;
41343;SDS011;27089;50.022;7.604;2023-05-19T06:51:22;4.22;;;1.85;;
41343;SDS011;27089;50.022;7.604;2023-05-19T06:53:48;4.30;;;1.75;;
41343;SDS011;27089;50.022;7.604;2023-05-19T06:56:15;4.35;;;1.60;;
41343;SDS011;27089;50.022;7.604;2023-05-19T06:58:43;3.45;;;1.60;;
41343;SDS011;27089;50.022;7.604;2023-05-19T07:01:10;4.93;;;1.60;;
41343;SDS011;27089;50.022;7.604;2023-05-19T07:03:37;4.95;;;1.67;;
41343;SDS011;27089;50.022;7.604;2023-05-19T07:06:04;3.25;;;1.67;;
41343;SDS011;27089;50.022;7.604;2023-05-19T07:08:32;4.30;;;1.52;;
41343;SDS011;27089;50.022;7.604;2023-05-19T07:11:01;7.45;;;1.52;;
41343;SDS011;27089;50.022;7.604;2023-05-19T07:13:28;4.28;;;1.75;;
41343;SDS011;27089;50.022;7.604;2023-05-19T07:15:56;2.53;;;1.50;;
41343;SDS011;27089;50.022;7.604;2023-05-19T07:18:23;4.43;;;1.52;;
41343;SDS011;27089;50.022;7.604;2023-05-19T07:20:51;3.78;;;1.58;;
41343;SDS011;27089;50.022;7.604;2023-05-19T07:23:18;3.92;;;1.63;;
41343;SDS011;27089;50.022;7.604;2023-05-19T07:25:47;4.63;;;1.60;;
41343;SDS011;27089;50.022;7.604;2023-05-19T07:28:14;6.00;;;1.90;;
41343;SDS011;27089;50.022;7.604;2023-05-19T07:30:41;5.55;;;1.70;;
41343;SDS011;27089;50.022;7.604;2023-05-19T07:33:08;5.95;;;1.80;;
41343;SDS011;27089;50.022;7.604;2023-05-19T07:35:35;3.30;;;1.65;;
41343;SDS011;27089;50.022;7.604;2023-05-19T07:38:02;4.50;;;1.50;;
41343;SDS011;27089;50.022;7.604;2023-05-19T07:40:31;3.65;;;1.50;;
41343;SDS011;27089;50.022;7.604;2023-05-19T07:42:59;4.78;;;1.90;;
41343;SDS011;27089;50.022;7.604;2023-05-19T07:45:26;3.17;;;1.58;;
41343;SDS011;27089;50.022;7.604;2023-05-19T07:47:53;4.05;;;1.77;;
41343;SDS011;27089;50.022;7.604;2023-05-19T07:50:20;4.32;;;1.70;;
41343;SDS011;27089;50.022;7.604;2023-05-19T07:52:47;3.13;;;1.80;;
41343;SDS011;27089;50.022;7.604;2023-05-19T07:55:14;5.20;;;2.28;;
41343;SDS011;27089;50.022;7.604;2023-05-19T07:57:43;5.20;;;1.98;;
41343;SDS011;27089;50.022;7.604;2023-05-19T08:00:12;4.68;;;1.58;;
41343;SDS011;27089;50.022;7.604;2023-05-19T08:02:39;4.55;;;1.92;;
41343;SDS011;27089;50.022;7.604;2023-05-19T08:05:07;4.90;;;2.13;;
41343;SDS011;27089;50.022;7.604;2023-05-19T08:07:35;3.55;;;1.42;;
41343;SDS011;27089;50.022;7.604;2023-05-19T08:10:02;3.00;;;1.50;;
41343;SDS011;27089;50.022;7.604;2023-05-19T08:12:30;6.20;;;2.08;;
41343;SDS011;27089;50.022;7.604;2023-05-19T08:14:57;3.85;;;1.95;;
41343;SDS011;27089;50.022;7.604;2023-05-19T08:17:25;5.30;;;1.85;;
41343;SDS011;27089;50.022;7.604;2023-05-19T08:19:52;4.60;;;1.70;;
41343;SDS011;27089;50.022;7.604;2023-05-19T08:22:19;6.00;;;1.80;;
41343;SDS011;27089;50.022;7.604;2023-05-19T08:24:46;4.97;;;1.60;;
41343;SDS011;27089;50.022;7.604;2023-05-19T08:27:13;4.03;;;1.88;;
41343;SDS011;27089;50.022;7.604;2023-05-19T08:29:40;3.85;;;1.80;;
41343;SDS011;27089;50.022;7.604;2023-05-19T08:32:07;4.68;;;1.70;;
41343;SDS011;27089;50.022;7.604;2023-05-19T08:34:36;5.10;;;2.10;;
41343;SDS011;27089;50.022;7.604;2023-05-19T08:37:03;4.25;;;1.80;;
41343;SDS011;27089;50.022;7.604;2023-05-19T08:39:31;4.15;;;1.80;;
41343;SDS011;27089;50.022;7.604;2023-05-19T08:41:58;5.20;;;2.10;;
41343;SDS011;27089;50.022;7.604;2023-05-19T08:44:26;3.58;;;1.70;;
41343;SDS011;27089;50.022;7.604;2023-05-19T08:46:54;4.47;;;1.60;;
41343;SDS011;27089;50.022;7.604;2023-05-19T08:49:25;3.58;;;1.98;;
41343;SDS011;27089;50.022;7.604;2023-05-19T08:51:59;6.35;;;1.90;;
41343;SDS011;27089;50.022;7.604;2023-05-19T08:54:35;3.97;;;1.80;;
41343;SDS011;27089;50.022;7.604;2023-05-19T08:57:08;4.32;;;2.20;;
41343;SDS011;27089;50.022;7.604;2023-05-19T08:59:36;3.65;;;1.83;;
41343;SDS011;27089;50.022;7.604;2023-05-19T09:02:04;5.90;;;1.70;;
41343;SDS011;27089;50.022;7.604;2023-05-19T09:04:33;3.95;;;1.83;;
41343;SDS011;27089;50.022;7.604;2023-05-19T09:07:02;7.30;;;2.40;;
41343;SDS011;27089;50.022;7.604;2023-05-19T09:09:29;5.50;;;1.83;;
41343;SDS011;27089;50.022;7.604;2023-05-19T09:11:56;5.28;;;2.08;;
41343;SDS011;27089;50.022;7.604;2023-05-19T09:14:23;5.82;;;1.92;;
41343;SDS011;27089;50.022;7.604;2023-05-19T09:16:50;3.88;;;2.08;;
41343;SDS011;27089;50.022;7.604;2023-05-19T09:19:18;7.80;;;1.98;;
41343;SDS011;27089;50.022;7.604;2023-05-19T09:21:49;6.75;;;2.08;;
41343;SDS011;27089;50.022;7.604;2023-05-19T09:24:25;4.45;;;2.53;;
41343;SDS011;27089;50.022;7.604;2023-05-19T09:26:53;5.47;;;2.17;;
41343;SDS011;27089;50.022;7.604;2023-05-19T09:29:22;6.22;;;2.30;;
41343;SDS011;27089;50.022;7.604;2023-05-19T09:31:49;5.13;;;1.80;;
41343;SDS011;27089;50.022;7.604;2023-05-19T09:34:17;6.05;;;1.80;;
41343;SDS011;27089;50.022;7.604;2023-05-19T09:36:45;4.57;;;1.70;;
41343;SDS011;27089;50.022;7.604;2023-05-19T09:39:13;5.07;;;2.10;;
41343;SDS011;27089;50.022;7.604;2023-05-19T09:41:42;4.32;;;1.95;;
41343;SDS011;27089;50.022;7.604;2023-05-19T09:44:13;4.32;;;1.98;;
41343;SDS011;27089;50.022;7.604;2023-05-19T09:46:47;6.70;;;2.33;;
41343;SDS011;27089;50.022;7.604;2023-05-19T09:49:18;6.00;;;2.30;;
41343;SDS011;27089;50.022;7.604;2023-05-19T09:51:48;9.07;;;2.33;;
41343;SDS011;27089;50.022;7.604;2023-05-19T09:54:16;4.07;;;1.88;;
41343;SDS011;27089;50.022;7.604;2023-05-19T09:56:46;7.03;;;2.45;;
41343;SDS011;27089;50.022;7.604;2023-05-19T09:59:18;6.95;;;2.22;;
41343;SDS011;27089;50.022;7.604;2023-05-19T10:01:49;4.35;;;2.17;;
41343;SDS011;27089;50.022;7.604;2023-05-19T10:04:17;6.88;;;2.10;;
41343;SDS011;27089;50.022;7.604;2023-05-19T10:06:46;4.28;;;1.65;;
41343;SDS011;27089;50.022;7.604;2023-05-19T10:09:18;3.30;;;2.28;;
41343;SDS011;27089;50.022;7.604;2023-05-19T10:11:48;5.78;;;1.80;;
41343;SDS011;27089;50.022;7.604;2023-05-19T10:14:18;5.88;;;1.95;;
41343;SDS011;27089;50.022;7.604;2023-05-19T10:16:47;5.28;;;1.80;;
41343;SDS011;27089;50.022;7.604;2023-05-19T10:19:16;5.55;;;1.73;;
41343;SDS011;27089;50.022;7.604;2023-05-19T10:21:46;5.32;;;1.92;;
41343;SDS011;27089;50.022;7.604;2023-05-19T10:24:14;5.50;;;2.00;;
41343;SDS011;27089;50.022;7.604;2023-05-19T10:26:42;5.53;;;2.00;;
41343;SDS011;27089;50.022;7.604;2023-05-19T10:29:13;7.00;;;2.10;;
41343;SDS011;27089;50.022;7.604;2023-05-19T10:31:44;4.90;;;2.27;;
41343;SDS011;27089;50.022;7.604;2023-05-19T10:34:19;5.63;;;2.20;;
41343;SDS011;27089;50.022;7.604;2023-05-19T10:36:56;5.93;;;2.10;;
41343;SDS011;27089;50.022;7.604;2023-05-19T10:39:33;4.13;;;1.73;;
41343;SDS011;27089;50.022;7.604;2023-05-19T10:42:02;5.57;;;1.90;;
41343;SDS011;27089;50.022;7.604;2023-05-19T10:44:39;3.47;;;1.63;;
41343;SDS011;27089;50.022;7.604;2023-05-19T10:47:21;5.50;;;1.97;;
41343;SDS011;27089;50.022;7.604;2023-05-19T10:49:50;5.00;;;1.97;;
41343;SDS011;27089;50.022;7.604;2023-05-19T10:52:18;11.03;;;2.23;;
41343;SDS011;27089;50.022;7.604;2023-05-19T10:54:47;5.63;;;2.00;;
41343;SDS011;27089;50.022;7.604;2023-05-19T10:57:15;6.10;;;3.00;;
41343;SDS011;27089;50.022;7.604;2023-05-19T10:59:44;5.33;;;2.10;;
41343;SDS011;27089;50.022;7.604;2023-05-19T11:05:05;6.23;;;1.97;;
41343;SDS011;27089;50.022;7.604;2023-05-19T11:07:34;4.73;;;1.70;;
41343;SDS011;27089;50.022;7.604;2023-05-19T11:10:05;5.80;;;2.07;;
41343;SDS011;27089;50.022;7.604;2023-05-19T11:12:39;6.23;;;1.87;;
41343;SDS011;27089;50.022;7.604;2023-05-19T11:15:10;4.63;;;2.00;;
41343;SDS011;27089;50.022;7.604;2023-05-19T11:17:38;3.13;;;1.60;;
41343;SDS011;27089;50.022;7.604;2023-05-19T11:20:07;4.73;;;1.90;;
41343;SDS011;27089;50.022;7.604;2023-05-19T11:22:59;3.57;;;1.90;;
41343;SDS011;27089;50.022;7.604;2023-05-19T11:25:42;4.07;;;1.90;;
41343;SDS011;27089;50.022;7.604;2023-05-19T11:28:10;3.40;;;1.47;;
41343;SDS011;27089;50.022;7.604;2023-05-19T11:30:40;6.00;;;1.87;;
41343;SDS011;27089;50.022;7.604;2023-05-19T11:33:08;7.47;;;1.90;;
41343;SDS011;27089;50.022;7.604;2023-05-19T11:35:35;4.77;;;1.80;;
41343;SDS011;27089;50.022;7.604;2023-05-19T11:38:03;5.07;;;1.93;;
41343;SDS011;27089;50.022;7.604;2023-05-19T11:40:31;3.63;;;1.80;;
41343;SDS011;27089;50.022;7.604;2023-05-19T11:42:58;7.13;;;1.90;;
41343;SDS011;27089;50.022;7.604;2023-05-19T11:45:27;4.43;;;1.60;;
41343;SDS011;27089;50.022;7.604;2023-05-19T11:47:58;4.73;;;1.53;;
41343;SDS011;27089;50.022;7.604;2023-05-19T11:50:25;5.57;;;1.57;;
41343;SDS011;27089;50.022;7.604;2023-05-19T11:52:52;4.03;;;1.70;;
41343;SDS011;27089;50.022;7.604;2023-05-19T11:55:20;10.17;;;1.80;;
41343;SDS011;27089;50.022;7.604;2023-05-19T11:57:55;6.20;;;1.73;;
41343;SDS011;27089;50.022;7.604;2023-05-19T12:00:23;4.73;;;1.87;;
41343;SDS011;27089;50.022;7.604;2023-05-19T12:02:50;4.30;;;1.50;;
41343;SDS011;27089;50.022;7.604;2023-05-19T12:05:20;3.67;;;1.67;;
41343;SDS011;27089;50.022;7.604;2023-05-19T12:07:48;4.00;;;1.90;;
41343;SDS011;27089;50.022;7.604;2023-05-19T12:10:16;3.77;;;1.70;;
41343;SDS011;27089;50.022;7.604;2023-05-19T12:12:44;4.10;;;1.63;;
41343;SDS011;27089;50.022;7.604;2023-05-19T12:15:11;4.43;;;1.87;;
41343;SDS011;27089;50.022;7.604;2023-05-19T12:17:38;5.43;;;2.30;;
41343;SDS011;27089;50.022;7.604;2023-05-19T12:20:05;4.07;;;1.80;;
41343;SDS011;27089;50.022;7.604;2023-05-19T12:22:36;5.80;;;1.73;;
41343;SDS011;27089;50.022;7.604;2023-05-19T12:25:03;3.87;;;1.90;;
41343;SDS011;27089;50.022;7.604;2023-05-19T12:27:33;6.73;;;1.90;;
41343;SDS011;27089;50.022;7.604;2023-05-19T12:30:02;3.70;;;1.80;;
41343;SDS011;27089;50.022;7.604;2023-05-19T12:32:32;4.50;;;1.80;;
41343;SDS011;27089;50.022;7.604;2023-05-19T12:35:01;5.53;;;1.77;;
41343;SDS011;27089;50.022;7.604;2023-05-19T12:37:29;4.20;;;2.00;;
41343;SDS011;27089;50.022;7.604;2023-05-19T12:39:58;4.80;;;1.90;;
41343;SDS011;27089;50.022;7.604;2023-05-19T12:42:25;4.80;;;1.70;;
41343;SDS011;27089;50.022;7.604;2023-05-19T12:44:55;4.83;;;1.57;;
41343;SDS011;27089;50.022;7.604;2023-05-19T12:47:28;4.20;;;1.80;;
41343;SDS011;27089;50.022;7.604;2023-05-19T12:49:59;4.43;;;1.70;;
41343;SDS011;27089;50.022;7.604;2023-05-19T12:52:27;4.33;;;1.70;;
41343;SDS011;27089;50.022;7.604;2023-05-19T12:54:59;3.00;;;1.47;;
41343;SDS011;27089;50.022;7.604;2023-05-19T12:57:28;3.57;;;1.80;;
41343;SDS011;27089;50.022;7.604;2023-05-19T13:00:00;7.50;;;2.30;;
41343;SDS011;27089;50.022;7.604;2023-05-19T13:02:32;3.23;;;1.63;;
41343;SDS011;27089;50.022;7.604;2023-05-19T13:05:00;4.75;;;1.73;;
41343;SDS011;27089;50.022;7.604;2023-05-19T13:07:27;5.20;;;1.80;;
41343;SDS011;27089;50.022;7.604;2023-05-19T13:09:54;6.23;;;1.93;;
41343;SDS011;27089;50.022;7.604;2023-05-19T13:12:23;9.07;;;2.00;;
41343;SDS011;27089;50.022;7.604;2023-05-19T13:14:50;3.37;;;1.80;;
41343;SDS011;27089;50.022;7.604;2023-05-19T13:17:17;2.20;;;1.40;;
41343;SDS011;27089;50.022;7.604;2023-05-19T13:19:44;3.83;;;1.50;;
41343;SDS011;27089;50.022;7.604;2023-05-19T13:22:11;4.57;;;1.73;;
41343;SDS011;27089;50.022;7.604;2023-05-19T13:24:38;3.47;;;1.63;;
41343;SDS011;27089;50.022;7.604;2023-05-19T13:27:05;3.00;;;1.57;;
41343;SDS011;27089;50.022;7.604;2023-05-19T13:29:34;4.97;;;1.73;;
41343;SDS011;27089;50.022;7.604;2023-05-19T13:32:01;4.10;;;1.70;;
41343;SDS011;27089;50.022;7.604;2023-05-19T13:34:28;2.97;;;1.47;;
41343;SDS011;27089;50.022;7.604;2023-05-19T13:36:55;2.30;;;1.60;;
41343;SDS011;27089;50.022;7.604;2023-05-19T13:39:22;3.70;;;1.60;;
41343;SDS011;27089;50.022;7.604;2023-05-19T13:41:49;4.60;;;2.00;;
41343;SDS011;27089;50.022;7.604;2023-05-19T13:44:16;5.30;;;1.80;;
41343;SDS011;27089;50.022;7.604;2023-05-19T13:46:44;4.60;;;1.50;;
41343;SDS011;27089;50.022;7.604;2023-05-19T13:49:11;3.50;;;1.40;;
41343;SDS011;27089;50.022;7.604;2023-05-19T13:51:40;3.95;;;1.50;;
41343;SDS011;27089;50.022;7.604;2023-05-19T13:54:07;2.30;;;1.33;;
41343;SDS011;27089;50.022;7.604;2023-05-19T13:56:35;1.90;;;1.50;;
41343;SDS011;27089;50.022;7.604;2023-05-19T13:59:02;6.70;;;1.57;;
41343;SDS011;27089;50.022;7.604;2023-05-19T14:01:29;3.10;;;1.67;;
41343;SDS011;27089;50.022;7.604;2023-05-19T14:03:58;3.17;;;1.57;;
41343;SDS011;27089;50.022;7.604;2023-05-19T14:06:25;2.40;;;1.67;;
41343;SDS011;27089;50.022;7.604;2023-05-19T14:08:52;3.40;;;1.63;;
41343;SDS011;27089;50.022;7.604;2023-05-19T14:11:19;4.60;;;1.70;;
41343;SDS011;27089;50.022;7.604;2023-05-19T14:13:46;3.60;;;1.50;;
41343;SDS011;27089;50.022;7.604;2023-05-19T14:16:14;4.70;;;1.60;;
41343;SDS011;27089;50.022;7.604;2023-05-19T14:18:41;4.60;;;1.47;;
41343;SDS011;27089;50.022;7.604;2023-05-19T14:21:09;3.93;;;1.30;;
41343;SDS011;27089;50.022;7.604;2023-05-19T14:23:36;4.63;;;1.70;;
41343;SDS011;27089;50.022;7.604;2023-05-19T14:26:03;3.17;;;1.40;;
41343;SDS011;27089;50.022;7.604;2023-05-19T14:28:30;4.67;;;1.73;;
41343;SDS011;27089;50.022;7.604;2023-05-19T14:30:57;3.47;;;1.50;;
41343;SDS011;27089;50.022;7.604;2023-05-19T14:33:24;4.53;;;1.40;;
41343;SDS011;27089;50.022;7.604;2023-05-19T14:35:51;6.10;;;2.00;;
41343;SDS011;27089;50.022;7.604;2023-05-19T14:38:20;4.13;;;1.80;;
41343;SDS011;27089;50.022;7.604;2023-05-19T14:40:47;2.50;;;1.53;;
41343;SDS011;27089;50.022;7.604;2023-05-19T14:43:14;3.63;;;1.70;;
41343;SDS011;27089;50.022;7.604;2023-05-19T14:45:41;2.87;;;1.60;;
41343;SDS011;27089;50.022;7.604;2023-05-19T14:48:08;3.53;;;1.60;;
41343;SDS011;27089;50.022;7.604;2023-05-19T14:50:35;2.63;;;1.30;;
41343;SDS011;27089;50.022;7.604;2023-05-19T14:53:02;4.93;;;1.83;;
41343;SDS011;27089;50.022;7.604;2023-05-19T14:55:31;2.83;;;1.40;;
41343;SDS011;27089;50.022;7.604;2023-05-19T14:57:58;5.17;;;1.60;;
41343;SDS011;27089;50.022;7.604;2023-05-19T15:00:25;4.63;;;1.60;;
41343;SDS011;27089;50.022;7.604;2023-05-19T15:02:51;4.20;;;1.60;;